Time;durP1;ratioP1;P1;durP2;ratioP2;P2;SDS_P1;SDS_P2;PMS_P1;PMS_P2;Temp;Humidity;BMP_temperature;BMP_pressure;BME280_temperature;BME280_humidity;BME280_pressure;Samples;Min_cycle;Max_cycle;Signal;HPM_P1;HPM_P2
2022/11/11 00:02:01;;;;;;;20.73;12.57;;;8.50;99.90;;;;;;5031845;28;20195;-69
2022/11/11 00:04:28;;;;;;;19.30;11.43;;;8.60;99.90;;;;;;5030692;28;20227;-67
2022/11/11 00:06:54;;;;;;;19.00;12.00;;;8.60;99.90;;;;;;5030395;28;20283;-66
2022/11/11 00:09:21;;;;;;;16.50;10.80;;;8.60;99.90;;;;;;5030046;28;20279;-68
2022/11/11 00:11:49;;;;;;;16.73;11.43;;;8.50;99.90;;;;;;5030531;28;20229;-68
2022/11/11 00:14:16;;;;;;;20.80;11.70;;;8.50;99.90;;;;;;5030369;28;20211;-67
2022/11/11 00:25:08;;;;;;;18.03;11.33;;;8.50;99.90;;;;;;5029595;28;20294;-67
2022/11/11 00:27:38;;;;;;;20.20;11.87;;;8.50;99.90;;;;;;5030746;28;20215;-69
2022/11/11 00:30:06;;;;;;;20.00;11.70;;;8.50;99.90;;;;;;5030999;28;20199;-70
2022/11/11 00:32:33;;;;;;;17.80;11.47;;;8.50;99.90;;;;;;5031282;28;20235;-68
2022/11/11 00:37:47;;;;;;;19.13;12.03;;;8.50;99.90;;;;;;5029890;28;20206;-68
2022/11/11 00:40:14;;;;;;;19.17;12.27;;;8.50;99.90;;;;;;5029617;28;20231;-68
2022/11/11 00:42:42;;;;;;;21.83;11.90;;;8.50;99.90;;;;;;5030907;28;20401;-68
2022/11/11 00:45:11;;;;;;;18.73;11.83;;;8.50;99.90;;;;;;5030286;28;20206;-68
2022/11/11 00:53:11;;;;;;;24.03;11.70;;;8.40;99.90;;;;;;5030105;28;20243;-69
2022/11/11 00:55:38;;;;;;;20.17;11.80;;;8.50;99.90;;;;;;5029337;28;20203;-68
2022/11/11 00:58:06;;;;;;;18.33;11.77;;;8.50;99.90;;;;;;5029057;28;20211;-68
2022/11/11 01:00:33;;;;;;;19.47;12.40;;;8.50;99.90;;;;;;5029733;28;20299;-67
2022/11/11 01:03:00;;;;;;;16.90;11.40;;;8.50;99.90;;;;;;5029763;28;20239;-68
2022/11/11 01:05:27;;;;;;;18.77;11.27;;;8.60;99.90;;;;;;5030693;28;20200;-68
2022/11/11 01:07:54;;;;;;;23.50;13.23;;;8.60;99.90;;;;;;5030490;28;20285;-69
2022/11/11 01:10:42;;;;;;;22.73;12.63;;;8.60;99.90;;;;;;5029789;28;20211;-67
2022/11/11 01:13:16;;;;;;;17.83;12.30;;;8.70;99.90;;;;;;5029349;28;20702;-68
2022/11/11 01:15:46;;;;;;;20.60;12.53;;;8.70;99.90;;;;;;5029576;28;20215;-68
2022/11/11 01:18:15;;;;;;;23.13;12.97;;;8.80;99.90;;;;;;5029498;28;20237;-68
2022/11/11 01:20:43;;;;;;;21.10;13.30;;;8.80;99.90;;;;;;5029340;28;20659;-69
2022/11/11 01:23:11;;;;;;;19.77;12.50;;;8.80;99.90;;;;;;5030590;28;20271;-69
2022/11/11 01:25:41;;;;;;;20.03;13.30;;;8.90;99.90;;;;;;5029849;28;20226;-67
2022/11/11 01:28:08;;;;;;;24.17;15.03;;;8.90;99.90;;;;;;5031661;28;20275;-68
2022/11/11 01:30:37;;;;;;;26.57;16.10;;;8.90;99.90;;;;;;5033609;28;20194;-67
2022/11/11 01:33:04;;;;;;;30.87;20.03;;;8.90;99.90;;;;;;5033355;28;20231;-67
2022/11/11 01:35:31;;;;;;;33.80;19.17;;;9.00;99.90;;;;;;5034159;28;20203;-67
2022/11/11 01:37:58;;;;;;;29.53;19.27;;;9.00;99.90;;;;;;5033980;28;20196;-67
2022/11/11 01:40:25;;;;;;;29.77;19.93;;;9.00;99.90;;;;;;5033716;28;20210;-69
2022/11/11 01:42:54;;;;;;;34.03;19.83;;;9.10;99.90;;;;;;5033960;28;20219;-68
2022/11/11 01:45:51;;;;;;;32.83;19.50;;;9.10;99.90;;;;;;5033488;28;20196;-68
2022/11/11 01:51:14;;;;;;;23.70;15.23;;;9.10;99.90;;;;;;5013830;28;20238;-67
2022/11/11 01:53:42;;;;;;;22.90;13.50;;;9.20;99.90;;;;;;5013134;28;20212;-67
2022/11/11 01:56:10;;;;;;;22.43;13.73;;;9.20;99.90;;;;;;5013286;28;20204;-67
2022/11/11 01:58:38;;;;;;;20.37;12.53;;;9.20;99.90;;;;;;5013293;28;20227;-68
2022/11/11 02:01:06;;;;;;;18.67;12.33;;;9.20;99.90;;;;;;5013236;28;20219;-68
2022/11/11 02:03:39;;;;;;;19.30;12.90;;;9.10;99.90;;;;;;5012655;28;20243;-68
2022/11/11 02:06:05;;;;;;;17.17;12.27;;;9.20;99.90;;;;;;5023659;28;20183;-68
2022/11/11 02:08:36;;;;;;;19.60;12.27;;;9.20;99.90;;;;;;5032728;28;20255;-68
2022/11/11 02:11:06;;;;;;;17.00;11.90;;;9.20;99.90;;;;;;5031349;28;20192;-68
2022/11/11 02:16:34;;;;;;;18.43;11.00;;;9.20;99.90;;;;;;4990727;28;20208;-67
2022/11/11 02:19:01;;;;;;;18.87;11.53;;;9.20;99.90;;;;;;5022486;28;20214;-67
2022/11/11 02:21:33;;;;;;;18.70;11.33;;;9.20;99.90;;;;;;5032408;28;20199;-68
2022/11/11 02:24:04;;;;;;;17.63;12.17;;;9.20;99.90;;;;;;5032270;28;20218;-69
2022/11/11 02:26:34;;;;;;;20.23;11.80;;;9.20;99.90;;;;;;5032611;28;20188;-67
2022/11/11 02:29:03;;;;;;;17.23;11.77;;;9.20;99.90;;;;;;5032901;28;20203;-68
2022/11/11 02:31:31;;;;;;;19.47;12.00;;;9.20;99.90;;;;;;5033013;28;20203;-67
2022/11/11 02:33:58;;;;;;;18.07;12.03;;;9.20;99.90;;;;;;5033355;28;20209;-67
2022/11/11 02:36:25;;;;;;;21.33;11.23;;;9.10;99.90;;;;;;5032567;28;20207;-68
2022/11/11 02:38:52;;;;;;;20.00;11.63;;;9.10;99.90;;;;;;5031742;28;20413;-67
2022/11/11 02:44:05;;;;;;;18.90;10.77;;;9.10;99.90;;;;;;5033193;28;20182;-67
2022/11/11 02:46:32;;;;;;;16.43;11.00;;;9.10;99.90;;;;;;5032444;28;20207;-67
2022/11/11 02:48:59;;;;;;;16.50;11.60;;;9.00;99.90;;;;;;5032515;28;20263;-66
2022/11/11 02:51:25;;;;;;;23.13;11.77;;;9.00;99.90;;;;;;5032211;28;20203;-68
2022/11/11 02:53:57;;;;;;;16.73;11.03;;;9.00;99.90;;;;;;5032385;28;20230;-68
2022/11/11 02:59:06;;;;;;;18.97;10.60;;;8.90;99.90;;;;;;5031423;28;20267;-68
2022/11/11 03:01:32;;;;;;;16.83;11.03;;;8.90;99.90;;;;;;5031928;28;20217;-67
2022/11/11 03:03:59;;;;;;;15.63;10.40;;;8.90;99.90;;;;;;5031688;28;20243;-67
2022/11/11 03:06:26;;;;;;;16.30;10.37;;;8.90;99.90;;;;;;5031589;28;20556;-68
2022/11/11 03:08:53;;;;;;;17.97;10.87;;;8.90;99.90;;;;;;5031613;28;20205;-67
2022/11/11 03:11:26;;;;;;;15.60;10.87;;;8.80;99.90;;;;;;5030695;28;20183;-68
2022/11/11 03:13:55;;;;;;;18.80;11.43;;;8.80;99.90;;;;;;5029802;28;20246;-68
2022/11/11 03:19:06;;;;;;;16.63;10.23;;;8.80;99.90;;;;;;5031396;28;20213;-68
2022/11/11 03:21:32;;;;;;;20.03;11.07;;;8.90;99.90;;;;;;5031374;28;20204;-68
2022/11/11 03:23:59;;;;;;;20.23;10.07;;;8.90;99.90;;;;;;5031549;28;20195;-67
2022/11/11 03:26:25;;;;;;;14.83;10.20;;;8.90;99.90;;;;;;5031662;28;20199;-67
2022/11/11 03:28:53;;;;;;;19.17;10.93;;;8.80;99.90;;;;;;5031537;28;20225;-66
2022/11/11 03:31:20;;;;;;;15.30;10.10;;;8.80;99.90;;;;;;5029350;28;20214;-68
2022/11/11 03:33:47;;;;;;;19.07;11.10;;;8.80;99.90;;;;;;5030328;28;20226;-67
2022/11/11 03:36:14;;;;;;;20.47;10.33;;;8.80;99.90;;;;;;5030200;28;20194;-67
2022/11/11 03:38:40;;;;;;;15.50;10.77;;;8.80;99.90;;;;;;5030156;28;20275;-67
2022/11/11 03:41:07;;;;;;;16.03;10.87;;;8.80;99.90;;;;;;5030638;28;20203;-68
2022/11/11 03:43:35;;;;;;;17.47;10.53;;;8.80;99.90;;;;;;5030787;28;20220;-67
2022/11/11 03:46:05;;;;;;;16.83;10.47;;;8.80;99.90;;;;;;5029985;28;20199;-68
2022/11/11 03:48:33;;;;;;;18.43;10.23;;;8.80;99.90;;;;;;5017570;28;20271;-67
2022/11/11 03:51:00;;;;;;;17.57;9.47;;;8.80;99.90;;;;;;5010831;28;20200;-67
2022/11/11 03:53:26;;;;;;;15.60;10.67;;;8.90;99.90;;;;;;5010673;28;20239;-68
2022/11/11 03:55:53;;;;;;;18.73;10.67;;;8.90;99.90;;;;;;5011010;28;20211;-67
2022/11/11 03:58:20;;;;;;;15.03;9.43;;;8.90;99.90;;;;;;5012127;28;20264;-68
2022/11/11 04:00:47;;;;;;;18.07;10.07;;;8.90;99.90;;;;;;5011060;28;20242;-67
2022/11/11 04:10:21;;;;;;;15.70;9.23;;;8.90;99.90;;;;;;5021020;28;20266;-67
2022/11/11 04:11:38;;;;;;;14.43;9.37;;;8.90;99.90;;;;;;5031400;28;20210;-68
2022/11/11 04:16:52;;;;;;;16.97;10.20;;;8.90;99.90;;;;;;5030434;28;20239;-66
2022/11/11 04:22:05;;;;;;;19.33;10.87;;;8.90;99.90;;;;;;5030827;28;20194;-68
2022/11/11 04:27:17;;;;;;;12.73;9.27;;;9.00;99.90;;;;;;5030401;28;20182;-67
2022/11/11 04:29:45;;;;;;;13.10;9.00;;;9.00;99.90;;;;;;5030520;28;20207;-66
2022/11/11 04:35:02;;;;;;;17.17;10.17;;;9.00;99.90;;;;;;5029401;28;20202;-67
2022/11/11 04:37:32;;;;;;;17.03;9.60;;;9.00;99.90;;;;;;5030230;28;20626;-68
2022/11/11 04:42:43;;;;;;;14.20;8.93;;;9.00;99.90;;;;;;5029985;28;20198;-67
2022/11/11 04:47:58;;;;;;;16.07;8.90;;;9.00;99.90;;;;;;5030088;28;20275;-68
2022/11/11 04:50:28;;;;;;;12.83;8.27;;;9.00;99.90;;;;;;5029740;28;20221;-67
2022/11/11 04:52:55;;;;;;;16.17;9.93;;;9.10;99.90;;;;;;5029462;28;20233;-67
2022/11/11 04:58:07;;;;;;;12.17;9.03;;;9.00;99.90;;;;;;5029151;28;20218;-67
2022/11/11 05:00:34;;;;;;;15.13;8.37;;;9.00;99.90;;;;;;5029282;28;20237;-68
2022/11/11 05:03:15;;;;;;;15.53;9.93;;;9.00;99.90;;;;;;5028547;28;20296;-67
2022/11/11 05:11:17;;;;;;;13.37;8.70;;;9.00;99.90;;;;;;5029805;28;20263;-68
2022/11/11 05:22:10;;;;;;;14.43;8.40;;;9.10;99.90;;;;;;5029573;28;20175;-68
2022/11/11 05:27:21;;;;;;;13.53;8.10;;;9.10;99.90;;;;;;5029053;28;20275;-67
2022/11/11 05:29:48;;;;;;;11.23;8.80;;;9.00;99.90;;;;;;5028825;28;20293;-67
2022/11/11 05:32:18;;;;;;;13.83;8.90;;;9.00;99.90;;;;;;5009224;28;20218;-68
2022/11/11 05:34:45;;;;;;;15.07;8.73;;;9.00;99.90;;;;;;5009548;28;20218;-68
2022/11/11 05:37:13;;;;;;;16.20;8.60;;;9.00;99.90;;;;;;5010655;28;20218;-69
2022/11/11 05:39:40;;;;;;;16.10;9.10;;;9.10;99.90;;;;;;5009680;28;20208;-67
2022/11/11 05:42:08;;;;;;;16.07;8.83;;;9.10;99.90;;;;;;5009660;28;20215;-68
2022/11/11 05:44:35;;;;;;;15.47;8.57;;;9.10;99.90;;;;;;5009394;28;20204;-67
2022/11/11 05:47:01;;;;;;;15.17;8.13;;;9.10;99.90;;;;;;5009661;28;20211;-67
2022/11/11 05:49:28;;;;;;;13.43;8.07;;;9.10;99.90;;;;;;5026330;28;20195;-66
2022/11/11 05:51:55;;;;;;;12.73;7.77;;;9.20;99.90;;;;;;5029094;28;20211;-67
2022/11/11 05:54:23;;;;;;;13.27;7.90;;;9.20;99.90;;;;;;5029280;28;20207;-67
2022/11/11 05:56:50;;;;;;;15.70;7.67;;;9.20;99.90;;;;;;5029795;28;20203;-68
2022/11/11 05:59:17;;;;;;;14.50;8.47;;;9.20;99.90;;;;;;5028896;28;20222;-67
2022/11/11 06:01:45;;;;;;;14.70;8.40;;;9.20;99.90;;;;;;5029227;28;20207;-68
2022/11/11 06:04:11;;;;;;;11.43;7.47;;;9.30;99.90;;;;;;5028437;28;20239;-68
2022/11/11 06:06:38;;;;;;;15.17;7.70;;;9.20;99.90;;;;;;5028574;28;20274;-67
2022/11/11 06:09:05;;;;;;;14.87;8.00;;;9.40;99.90;;;;;;5029201;28;20199;-67
2022/11/11 06:11:33;;;;;;;14.07;7.67;;;9.40;99.90;;;;;;5028891;28;20208;-68
2022/11/11 06:14:00;;;;;;;16.07;7.87;;;9.30;99.90;;;;;;5027871;28;20223;-67
2022/11/11 06:16:27;;;;;;;11.37;8.40;;;9.30;99.90;;;;;;5032031;28;20238;-67
2022/11/11 06:18:54;;;;;;;12.50;7.80;;;9.40;99.90;;;;;;5032485;28;20206;-67
2022/11/11 06:21:21;;;;;;;9.80;6.60;;;9.30;99.90;;;;;;5030165;28;20206;-67
2022/11/11 06:23:47;;;;;;;12.43;7.40;;;9.30;99.90;;;;;;5031718;28;20202;-67
2022/11/11 06:26:14;;;;;;;11.37;7.60;;;9.40;99.90;;;;;;5031610;28;20199;-68
2022/11/11 06:28:43;;;;;;;14.57;7.37;;;9.30;99.90;;;;;;5032603;28;20210;-67
2022/11/11 06:31:12;;;;;;;12.90;7.63;;;9.40;99.90;;;;;;5032178;28;20283;-67
2022/11/11 06:33:39;;;;;;;12.23;7.63;;;9.50;99.90;;;;;;5031996;28;20223;-67
2022/11/11 06:36:07;;;;;;;13.20;6.93;;;9.50;99.90;;;;;;5032242;28;20275;-67
2022/11/11 06:38:34;;;;;;;14.10;7.30;;;9.50;99.90;;;;;;5030904;28;20230;-68
2022/11/11 06:41:01;;;;;;;16.00;7.60;;;9.60;99.90;;;;;;5032284;28;20207;-68
2022/11/11 06:43:28;;;;;;;11.10;7.40;;;9.60;99.90;;;;;;5032373;28;20205;-66
2022/11/11 06:45:56;;;;;;;11.97;7.00;;;9.60;99.90;;;;;;5031289;28;20226;-67
2022/11/11 06:48:27;;;;;;;13.80;7.90;;;9.70;99.90;;;;;;5031054;28;20199;-67
2022/11/11 06:51:00;;;;;;;11.00;7.77;;;9.70;99.90;;;;;;5031072;28;20195;-68
2022/11/11 06:53:28;;;;;;;13.83;7.47;;;9.70;99.90;;;;;;5028727;28;20223;-67
2022/11/11 06:55:54;;;;;;;13.70;7.97;;;9.70;99.90;;;;;;5031770;28;20431;-67
2022/11/11 06:58:21;;;;;;;12.03;7.57;;;9.70;99.90;;;;;;5031492;28;20210;-67
2022/11/11 07:00:49;;;;;;;15.90;8.33;;;9.80;99.90;;;;;;5030080;28;20253;-67
2022/11/11 07:03:19;;;;;;;11.30;6.80;;;9.80;99.90;;;;;;5029279;28;20282;-67
2022/11/11 07:05:46;;;;;;;10.30;7.43;;;9.80;99.90;;;;;;5030974;28;20207;-67
2022/11/11 07:08:15;;;;;;;13.20;6.83;;;9.80;99.90;;;;;;5031184;28;20206;-67
2022/11/11 07:10:45;;;;;;;15.97;7.37;;;9.80;99.90;;;;;;5031033;28;20199;-67
2022/11/11 07:13:11;;;;;;;11.00;6.97;;;9.80;99.90;;;;;;5030260;28;20233;-67
2022/11/11 07:15:38;;;;;;;15.20;7.70;;;9.80;99.90;;;;;;5030397;28;20217;-68
2022/11/11 07:18:06;;;;;;;13.00;7.70;;;9.80;99.90;;;;;;5030814;28;20203;-67
2022/11/11 07:20:34;;;;;;;12.83;7.87;;;9.80;99.90;;;;;;5030318;28;20225;-67
2022/11/11 07:23:01;;;;;;;14.10;8.00;;;9.80;99.90;;;;;;5030858;28;20230;-67
2022/11/11 07:25:27;;;;;;;16.63;7.37;;;9.80;99.90;;;;;;5030696;28;20218;-67
2022/11/11 07:27:54;;;;;;;11.57;7.07;;;9.80;99.90;;;;;;5031272;28;20203;-68
2022/11/11 07:30:21;;;;;;;10.23;7.00;;;9.80;99.90;;;;;;5031627;28;20183;-68
2022/11/11 07:32:49;;;;;;;12.23;7.40;;;9.90;99.90;;;;;;5029843;28;20214;-67
2022/11/11 07:35:16;;;;;;;12.63;7.67;;;9.90;99.90;;;;;;5030497;28;20203;-68
2022/11/11 07:37:45;;;;;;;13.87;7.50;;;9.90;99.90;;;;;;5030853;28;20203;-67
2022/11/11 07:40:14;;;;;;;10.13;7.53;;;9.90;99.90;;;;;;5030295;28;20207;-68
2022/11/11 07:42:42;;;;;;;15.00;7.27;;;9.90;99.90;;;;;;5029945;28;20203;-67
2022/11/11 07:45:10;;;;;;;11.93;7.70;;;10.00;99.90;;;;;;5030226;28;20196;-68
2022/11/11 07:47:37;;;;;;;9.50;6.33;;;10.00;99.90;;;;;;5029660;28;20275;-67
2022/11/11 07:50:06;;;;;;;17.03;7.60;;;10.10;99.90;;;;;;5017162;28;20271;-68
2022/11/11 07:52:32;;;;;;;11.60;7.40;;;10.10;99.90;;;;;;5029681;28;20210;-67
2022/11/11 07:55:01;;;;;;;12.90;6.57;;;10.10;99.90;;;;;;5029539;28;20237;-67
2022/11/11 07:57:27;;;;;;;12.73;6.80;;;10.10;99.90;;;;;;5028388;28;20225;-66
2022/11/11 07:59:54;;;;;;;14.60;8.10;;;10.10;99.90;;;;;;5028907;28;20226;-68
2022/11/11 08:02:21;;;;;;;11.93;7.50;;;10.20;99.90;;;;;;5028631;28;20207;-67
2022/11/11 08:04:48;;;;;;;10.80;6.63;;;10.20;99.90;;;;;;5029662;28;20568;-67
2022/11/11 08:07:14;;;;;;;9.73;6.57;;;10.20;99.90;;;;;;5029622;28;20203;-67
2022/11/11 08:09:41;;;;;;;14.10;7.90;;;10.30;99.90;;;;;;5027839;28;20213;-67
2022/11/11 08:14:54;;;;;;;10.30;6.80;;;10.30;99.90;;;;;;5028852;28;20237;-68
2022/11/11 08:17:21;;;;;;;12.40;7.63;;;10.40;99.90;;;;;;5029870;28;20230;-68
2022/11/11 08:19:48;;;;;;;11.00;7.60;;;10.50;99.90;;;;;;5030204;28;20229;-68
2022/11/11 08:22:14;;;;;;;10.93;6.90;;;10.60;99.90;;;;;;5030547;28;20213;-67
2022/11/11 08:24:41;;;;;;;13.97;6.83;;;10.70;99.90;;;;;;5030580;28;20204;-68
2022/11/11 08:27:09;;;;;;;14.13;7.40;;;10.80;99.90;;;;;;5030907;28;20203;-69
2022/11/11 08:29:36;;;;;;;12.10;7.63;;;10.90;99.90;;;;;;5030464;28;20203;-68
2022/11/11 08:32:03;;;;;;;10.57;6.37;;;11.00;99.90;;;;;;5029309;28;20194;-68
2022/11/11 08:34:30;;;;;;;16.40;7.40;;;11.10;99.90;;;;;;5029858;28;20223;-68
2022/11/11 08:36:57;;;;;;;12.97;7.20;;;11.20;99.90;;;;;;5030066;28;20245;-67
2022/11/11 08:39:24;;;;;;;13.10;6.90;;;11.30;99.90;;;;;;5029750;28;20199;-68
2022/11/11 08:41:50;;;;;;;10.73;7.23;;;11.40;99.90;;;;;;5028364;28;20207;-68
2022/11/11 08:44:18;;;;;;;12.53;6.93;;;11.40;99.90;;;;;;5029336;28;20203;-68
2022/11/11 08:46:45;;;;;;;13.40;6.37;;;11.40;99.90;;;;;;5028138;28;20204;-68
2022/11/11 08:49:12;;;;;;;12.37;6.53;;;11.50;99.90;;;;;;5029188;28;20210;-67
2022/11/11 08:51:39;;;;;;;11.27;6.13;;;11.50;99.90;;;;;;5029185;28;20223;-68
2022/11/11 08:54:05;;;;;;;13.10;6.77;;;11.60;99.90;;;;;;5029338;28;20310;-67
2022/11/11 08:56:32;;;;;;;12.07;6.63;;;11.70;99.90;;;;;;5028266;28;20209;-68
2022/11/11 08:58:59;;;;;;;12.93;7.37;;;11.70;99.90;;;;;;5028793;28;20334;-68
2022/11/11 09:01:27;;;;;;;13.40;8.00;;;11.80;99.90;;;;;;5028109;28;20221;-68
2022/11/11 09:03:54;;;;;;;12.77;7.90;;;11.80;99.90;;;;;;5026470;28;20243;-69
2022/11/11 09:06:23;;;;;;;15.17;7.23;;;11.90;99.90;;;;;;5007185;28;20208;-67
2022/11/11 09:08:50;;;;;;;12.07;7.07;;;11.90;99.90;;;;;;5006608;28;20214;-68
2022/11/11 09:11:17;;;;;;;13.77;6.77;;;12.00;99.90;;;;;;5007220;28;20200;-68
2022/11/11 09:13:44;;;;;;;10.40;6.97;;;12.00;99.90;;;;;;5007922;28;20223;-69
2022/11/11 09:16:11;;;;;;;11.20;6.53;;;12.10;99.90;;;;;;5007175;28;20460;-67
2022/11/11 09:18:39;;;;;;;12.17;6.47;;;12.10;99.90;;;;;;5008436;28;20204;-67
2022/11/11 09:21:06;;;;;;;10.47;5.90;;;12.20;99.90;;;;;;5009810;28;20203;-69
2022/11/11 09:23:33;;;;;;;10.10;6.57;;;12.20;99.90;;;;;;5027269;28;20202;-67
2022/11/11 09:26:03;;;;;;;12.70;6.50;;;12.10;99.90;;;;;;5028817;28;20215;-68
2022/11/11 09:28:32;;;;;;;11.37;7.07;;;12.20;99.90;;;;;;5028045;28;20234;-68
2022/11/11 09:31:00;;;;;;;11.93;6.57;;;12.20;99.90;;;;;;5027124;28;20238;-68
2022/11/11 09:33:26;;;;;;;9.93;5.73;;;12.20;99.90;;;;;;5027430;28;20234;-68
2022/11/11 09:35:55;;;;;;;13.67;7.20;;;12.30;99.90;;;;;;5028223;28;20241;-67
2022/11/11 09:38:21;;;;;;;12.87;6.37;;;12.30;99.90;;;;;;5026379;28;20282;-68
2022/11/11 09:41:01;;;;;;;13.83;7.43;;;12.30;99.90;;;;;;5028122;28;20203;-68
2022/11/11 09:43:36;;;;;;;14.10;7.03;;;12.30;99.90;;;;;;5027004;28;20286;-68
2022/11/11 09:46:15;;;;;;;13.20;7.10;;;12.40;99.90;;;;;;5025876;28;20191;-67
2022/11/11 09:49:03;;;;;;;12.63;6.60;;;12.40;99.90;;;;;;5027492;28;20566;-68
2022/11/11 09:51:39;;;;;;;13.83;7.07;;;12.40;99.90;;;;;;5031018;28;20195;-68
2022/11/11 09:54:12;;;;;;;14.73;7.27;;;12.40;99.90;;;;;;5031787;28;20302;-68
2022/11/11 09:56:39;;;;;;;15.33;7.73;;;12.40;99.90;;;;;;5029355;28;20215;-68
2022/11/11 09:59:10;;;;;;;12.47;6.70;;;12.40;99.90;;;;;;5030980;28;20219;-68
2022/11/11 10:01:41;;;;;;;11.10;6.40;;;12.30;99.90;;;;;;5030898;28;20621;-67
2022/11/11 10:04:18;;;;;;;13.37;6.77;;;12.30;99.90;;;;;;5029945;28;20246;-68
2022/11/11 10:06:48;;;;;;;10.27;6.27;;;12.30;99.90;;;;;;5032177;28;20201;-69
2022/11/11 10:09:21;;;;;;;14.23;6.63;;;12.30;99.90;;;;;;5032408;28;20200;-68
2022/11/11 10:11:54;;;;;;;10.07;6.77;;;12.30;99.90;;;;;;5030445;28;20209;-69
2022/11/11 10:14:21;;;;;;;13.40;7.80;;;12.20;99.90;;;;;;5031567;28;20212;-69
2022/11/11 10:16:57;;;;;;;12.43;6.50;;;12.20;99.90;;;;;;5031315;28;20207;-67
2022/11/11 10:19:30;;;;;;;21.30;6.43;;;12.20;99.90;;;;;;5029632;28;20284;-69
2022/11/11 10:22:01;;;;;;;12.53;6.67;;;12.10;99.90;;;;;;5031907;28;20202;-68
2022/11/11 10:24:31;;;;;;;15.93;6.83;;;12.10;99.90;;;;;;5032859;28;20188;-67
2022/11/11 10:27:01;;;;;;;10.80;6.83;;;12.10;99.90;;;;;;5030592;28;20200;-69
2022/11/11 10:29:34;;;;;;;12.83;6.70;;;12.10;99.90;;;;;;5013211;28;20204;-69
2022/11/11 10:32:05;;;;;;;10.83;6.00;;;12.10;99.90;;;;;;5011805;28;20196;-68
2022/11/11 10:34:34;;;;;;;14.23;6.70;;;12.10;99.90;;;;;;5012155;28;20475;-69
2022/11/11 10:37:03;;;;;;;9.70;6.10;;;12.10;99.90;;;;;;5011133;28;20208;-68
2022/11/11 10:39:44;;;;;;;11.43;7.00;;;12.10;99.90;;;;;;5010134;28;20687;-68
2022/11/11 10:42:16;;;;;;;12.80;5.80;;;12.10;99.90;;;;;;5010516;28;20203;-68
2022/11/11 10:44:43;;;;;;;13.13;6.40;;;12.10;99.90;;;;;;5026422;28;20428;-69
2022/11/11 10:47:15;;;;;;;13.10;6.90;;;12.20;99.90;;;;;;5029701;28;20323;-68
2022/11/11 10:49:51;;;;;;;10.33;6.17;;;12.20;99.90;;;;;;5028012;28;20206;-68
2022/11/11 10:52:22;;;;;;;11.00;6.87;;;12.30;99.90;;;;;;5028262;28;20214;-67
2022/11/11 10:54:54;;;;;;;12.87;6.33;;;12.40;99.90;;;;;;5028430;28;20215;-68
2022/11/11 10:57:26;;;;;;;16.57;6.97;;;12.50;99.90;;;;;;5028227;28;20198;-69
2022/11/11 10:59:57;;;;;;;10.87;6.60;;;12.50;99.90;;;;;;5027349;28;20245;-69
2022/11/11 11:02:29;;;;;;;9.23;6.30;;;12.60;99.90;;;;;;5027265;28;20569;-68
2022/11/11 11:05:01;;;;;;;12.47;7.13;;;12.70;99.90;;;;;;5027322;28;20363;-69
2022/11/11 11:07:37;;;;;;;12.50;7.03;;;12.70;99.90;;;;;;5027415;28;20636;-68
2022/11/11 11:10:08;;;;;;;13.80;7.17;;;12.80;99.90;;;;;;5027100;28;20314;-67
2022/11/11 11:12:41;;;;;;;12.87;7.23;;;12.80;99.90;;;;;;5027463;28;20199;-69
2022/11/11 11:15:13;;;;;;;10.87;6.73;;;12.90;99.90;;;;;;5027845;28;20214;-68
2022/11/11 11:17:47;;;;;;;11.53;6.80;;;12.90;99.90;;;;;;5028306;28;20199;-68
2022/11/11 11:20:15;;;;;;;12.23;6.27;;;12.90;99.90;;;;;;5027701;28;20190;-68
2022/11/11 11:22:49;;;;;;;10.87;6.43;;;12.80;99.90;;;;;;5018062;28;20235;-69
2022/11/11 11:25:18;;;;;;;10.90;6.93;;;12.80;99.90;;;;;;5008825;28;20191;-68
2022/11/11 11:27:45;;;;;;;13.07;7.53;;;12.80;99.90;;;;;;5007992;28;20618;-68
2022/11/11 11:30:15;;;;;;;11.57;6.63;;;12.70;99.90;;;;;;5008253;28;20227;-69
2022/11/11 11:32:55;;;;;;;13.83;6.10;;;12.70;99.90;;;;;;5006988;28;20211;-68
2022/11/11 11:35:37;;;;;;;9.77;5.93;;;12.70;99.90;;;;;;5007185;28;20223;-68
2022/11/11 11:38:06;;;;;;;13.33;6.53;;;12.70;99.90;;;;;;5006025;28;20215;-68
2022/11/11 11:40:48;;;;;;;9.17;6.07;;;12.70;99.90;;;;;;5017753;28;20203;-68
2022/11/11 11:43:33;;;;;;;9.83;6.13;;;12.70;99.90;;;;;;5028798;28;20208;-68
2022/11/11 11:46:01;;;;;;;9.23;5.97;;;12.80;99.90;;;;;;5028175;28;20199;-68
2022/11/11 11:48:48;;;;;;;11.73;6.60;;;12.70;99.90;;;;;;5027333;28;20229;-68
2022/11/11 11:51:32;;;;;;;11.53;6.50;;;12.70;99.90;;;;;;5026952;28;20191;-67
2022/11/11 11:54:14;;;;;;;13.53;6.70;;;12.70;99.90;;;;;;5026670;28;20191;-68
2022/11/11 11:56:44;;;;;;;11.90;6.50;;;12.70;99.90;;;;;;5025724;28;20191;-68
2022/11/11 11:59:17;;;;;;;13.13;6.40;;;12.70;99.90;;;;;;5026981;28;20237;-68
2022/11/11 12:01:55;;;;;;;12.70;6.43;;;12.70;99.90;;;;;;5026615;28;20282;-68
2022/11/11 12:04:52;;;;;;;10.17;5.30;;;12.60;99.90;;;;;;5026338;28;20258;-68
2022/11/11 12:07:33;;;;;;;10.67;6.10;;;12.70;99.90;;;;;;5026855;28;20195;-69
2022/11/11 12:10:10;;;;;;;12.20;6.33;;;12.70;99.90;;;;;;5027105;28;20462;-69
2022/11/11 12:12:44;;;;;;;10.27;5.33;;;12.70;99.90;;;;;;5026397;28;20632;-69
2022/11/11 12:15:24;;;;;;;10.53;5.57;;;12.80;99.90;;;;;;5025834;28;20272;-68
2022/11/11 12:18:00;;;;;;;10.83;5.60;;;12.80;99.90;;;;;;5026914;28;20355;-68
2022/11/11 12:20:33;;;;;;;14.20;6.10;;;12.80;99.90;;;;;;5026471;28;20205;-68
2022/11/11 12:23:32;;;;;;;10.47;5.43;;;12.70;99.90;;;;;;5026256;28;20191;-68
2022/11/11 12:26:07;;;;;;;10.23;5.83;;;12.70;99.90;;;;;;5026458;28;20199;-68
2022/11/11 12:28:57;;;;;;;11.30;6.23;;;12.70;99.90;;;;;;5026017;28;20187;-68
2022/11/11 12:31:33;;;;;;;11.40;5.43;;;12.70;99.90;;;;;;5024639;28;20207;-69
2022/11/11 12:34:16;;;;;;;15.43;5.17;;;12.70;99.90;;;;;;5024422;28;20688;-67
2022/11/11 12:36:51;;;;;;;7.67;5.43;;;12.70;99.90;;;;;;5025244;28;20199;-69
2022/11/11 12:39:32;;;;;;;7.50;4.77;;;12.80;99.90;;;;;;5024590;28;20194;-69
2022/11/11 12:42:13;;;;;;;9.43;5.47;;;12.80;99.90;;;;;;5024576;28;20282;-69
2022/11/11 12:44:51;;;;;;;7.87;4.40;;;12.90;99.90;;;;;;5026326;28;20191;-68
2022/11/11 12:47:30;;;;;;;9.03;4.40;;;12.90;99.90;;;;;;5023413;28;20195;-68
2022/11/11 12:50:06;;;;;;;8.57;5.43;;;12.80;99.90;;;;;;5026027;28;20196;-67
2022/11/11 12:52:43;;;;;;;11.67;4.70;;;12.80;99.90;;;;;;5026270;28;20195;-68
2022/11/11 12:55:19;;;;;;;12.23;4.57;;;12.70;99.90;;;;;;5025232;28;20219;-68
2022/11/11 12:58:04;;;;;;;10.47;4.97;;;12.60;99.90;;;;;;5025377;28;20223;-69
2022/11/11 13:00:31;;;;;;;10.33;4.87;;;12.50;99.90;;;;;;5024833;28;20231;-68
2022/11/11 13:03:42;;;;;;;10.23;4.60;;;12.40;99.90;;;;;;5024893;28;20258;-69
2022/11/11 13:06:24;;;;;;;11.53;5.27;;;12.40;99.90;;;;;;4997131;28;20195;-68
2022/11/11 13:09:05;;;;;;;9.40;4.63;;;12.30;99.90;;;;;;5024697;28;20199;-69
2022/11/11 13:11:42;;;;;;;8.43;4.20;;;12.30;99.90;;;;;;5024255;28;20287;-69
2022/11/11 13:14:27;;;;;;;8.20;4.67;;;12.20;99.90;;;;;;5024548;28;20194;-68
2022/11/11 13:16:58;;;;;;;10.60;5.73;;;12.20;99.90;;;;;;5024903;28;20202;-68
2022/11/11 13:19:32;;;;;;;10.33;5.20;;;12.20;99.90;;;;;;5024728;28;20194;-68
2022/11/11 13:22:06;;;;;;;11.63;4.80;;;12.10;99.90;;;;;;5024154;28;20206;-68
2022/11/11 13:24:35;;;;;;;9.80;4.77;;;12.10;99.90;;;;;;5027140;28;20195;-68
2022/11/11 13:27:06;;;;;;;6.93;4.50;;;12.10;99.90;;;;;;5029215;28;20218;-68
2022/11/11 13:30:03;;;;;;;10.17;5.13;;;12.10;99.90;;;;;;5027509;28;20218;-69
2022/11/11 13:32:34;;;;;;;8.90;4.20;;;12.10;99.90;;;;;;5028771;28;20217;-68
2022/11/11 13:35:01;;;;;;;9.67;4.73;;;12.10;99.90;;;;;;5028567;28;20211;-68
2022/11/11 13:37:32;;;;;;;9.33;5.07;;;12.10;99.90;;;;;;5027525;28;20199;-68
2022/11/11 13:40:04;;;;;;;9.87;5.03;;;12.10;99.90;;;;;;5028838;28;20539;-67
2022/11/11 13:42:37;;;;;;;9.23;5.07;;;12.00;99.90;;;;;;5028884;28;20210;-69
2022/11/11 13:45:08;;;;;;;8.13;4.37;;;12.00;99.90;;;;;;5029159;28;20198;-68
2022/11/11 13:47:38;;;;;;;9.17;4.80;;;12.00;99.90;;;;;;5028886;28;20203;-71
2022/11/11 13:50:07;;;;;;;7.87;4.90;;;12.00;99.90;;;;;;5024974;28;20209;-68
2022/11/11 13:52:37;;;;;;;8.30;4.60;;;11.90;99.90;;;;;;5029171;28;20257;-68
2022/11/11 13:55:07;;;;;;;9.17;5.20;;;11.90;99.90;;;;;;5027957;28;20236;-69
2022/11/11 13:57:44;;;;;;;7.73;4.83;;;11.90;99.90;;;;;;5028315;28;20200;-68
2022/11/11 14:00:34;;;;;;;9.03;5.47;;;11.90;99.90;;;;;;5027564;28;20233;-68
2022/11/11 14:03:29;;;;;;;12.47;5.10;;;11.90;99.90;;;;;;5028007;28;20246;-67
2022/11/11 14:06:37;;;;;;;10.37;4.83;;;11.80;99.90;;;;;;5022446;28;20207;-68
2022/11/11 14:09:04;;;;;;;10.87;5.77;;;11.80;99.90;;;;;;5008270;28;20610;-68
2022/11/11 14:11:33;;;;;;;8.80;5.60;;;11.80;99.90;;;;;;5007931;28;20208;-69
2022/11/11 14:14:45;;;;;;;10.57;5.57;;;11.80;99.90;;;;;;5007192;28;20208;-68